createdAt,value
2023-01-24T00:01:25.709Z,101979.89
2023-01-24T00:03:54.443Z,101972.63
2023-01-24T00:06:23.062Z,101971.10
2023-01-24T00:08:51.692Z,101973.52
2023-01-24T00:11:20.784Z,101970.15
2023-01-24T00:13:49.678Z,101975.05
2023-01-24T00:16:21.962Z,101973.60
2023-01-24T00:18:50.913Z,101972.88
2023-01-24T00:21:21.633Z,101971.77
2023-01-24T00:23:52.184Z,101972.39
2023-01-24T00:26:22.080Z,101972.33
2023-01-24T00:28:52.851Z,101970.20
2023-01-24T00:31:21.877Z,101968.91
2023-01-24T00:33:50.644Z,101969.60
2023-01-24T00:36:21.905Z,101971.91
2023-01-24T00:38:51.704Z,101971.33
2023-01-24T00:41:20.346Z,101974.15
2023-01-24T00:43:50.155Z,101974.38
2023-01-24T00:46:19.955Z,101976.15
2023-01-24T00:48:50.955Z,101979.00
2023-01-24T00:51:21.773Z,101984.48
2023-01-24T00:53:50.599Z,101987.18
2023-01-24T00:56:19.319Z,101987.34
2023-01-24T00:58:48.602Z,101983.99
2023-01-24T01:01:17.625Z,101981.14
2023-01-24T01:03:46.992Z,101981.95
2023-01-24T01:06:17.063Z,101978.51
2023-01-24T01:08:46.242Z,101979.16
2023-01-24T01:11:15.305Z,101974.02
2023-01-24T01:13:44.318Z,101973.61
2023-01-24T01:16:17.652Z,101976.77
2023-01-24T01:18:48.042Z,101977.06
2023-01-24T01:21:18.442Z,101972.60
2023-01-24T01:23:47.529Z,101969.52
2023-01-24T01:26:18.322Z,101970.70
2023-01-24T01:28:47.191Z,101967.81
2023-01-24T01:31:16.283Z,101970.08
2023-01-24T01:33:45.259Z,101965.29
2023-01-24T01:36:14.163Z,101967.05
2023-01-24T01:38:43.128Z,101964.59
2023-01-24T01:41:13.732Z,101964.92
2023-01-24T01:44:02.609Z,101967.20
2023-01-24T01:46:41.717Z,101969.99
2023-01-24T01:49:19.401Z,101966.00
2023-01-24T01:51:49.815Z,101964.55
2023-01-24T01:54:19.849Z,101965.41
2023-01-24T01:56:59.142Z,101963.94
2023-01-24T01:59:37.031Z,101965.68
2023-01-24T02:02:09.407Z,101962.90
2023-01-24T02:04:40.308Z,101965.52
2023-01-24T02:07:32.362Z,101964.93
2023-01-24T02:10:00.980Z,101965.25
2023-01-24T02:12:32.000Z,101958.12
2023-01-24T02:15:25.752Z,101962.38
2023-01-24T02:17:55.343Z,101961.84
2023-01-24T02:20:34.310Z,101959.57
2023-01-24T02:23:43.944Z,101962.92
2023-01-24T02:26:13.892Z,101965.25
2023-01-24T02:28:55.132Z,101962.56
2023-01-24T02:31:23.554Z,101963.09
2023-01-24T02:33:51.852Z,101963.29
2023-01-24T02:36:25.835Z,101962.89
2023-01-24T02:38:56.513Z,101956.69
2023-01-24T02:41:28.642Z,101955.77
2023-01-24T02:43:59.425Z,101954.79
2023-01-24T02:46:30.886Z,101952.11
2023-01-24T02:48:59.683Z,101951.91
2023-01-24T02:51:47.019Z,101951.16
2023-01-24T02:54:16.776Z,101952.95
2023-01-24T02:57:04.578Z,101948.52
2023-01-24T02:59:33.759Z,101951.16
2023-01-24T03:02:02.752Z,101949.03
2023-01-24T03:04:33.850Z,101952.66
2023-01-24T03:07:03.256Z,101954.38
2023-01-24T03:09:40.005Z,101950.12
2023-01-24T03:12:27.845Z,101952.11
2023-01-24T03:15:21.733Z,101954.32
2023-01-24T03:18:09.582Z,101954.41
2023-01-24T03:20:58.184Z,101954.80
2023-01-24T03:23:45.589Z,101956.55
2023-01-24T03:26:33.090Z,101961.91
2023-01-24T03:29:20.525Z,101959.52
2023-01-24T03:32:09.662Z,101962.10
2023-01-24T03:34:52.117Z,101964.60
2023-01-24T03:37:43.909Z,101965.55
2023-01-24T03:40:16.194Z,101963.71
2023-01-24T03:42:49.617Z,101966.72
2023-01-24T03:45:26.209Z,101967.51
2023-01-24T03:47:57.242Z,101970.77
2023-01-24T03:50:47.494Z,101970.10
2023-01-24T03:53:16.450Z,101977.27
2023-01-24T03:55:46.693Z,101977.66
2023-01-24T03:58:16.388Z,101978.98
2023-01-24T04:00:45.123Z,101981.52
2023-01-24T04:03:26.714Z,101984.64
2023-01-24T04:05:55.577Z,101980.52
2023-01-24T04:08:24.464Z,101985.05
2023-01-24T04:10:57.462Z,101990.11
2023-01-24T04:13:26.280Z,101995.20
2023-01-24T04:15:55.088Z,101998.29
2023-01-24T04:18:32.400Z,101998.73
2023-01-24T04:21:03.102Z,102001.42
2023-01-24T04:23:32.605Z,102004.70
2023-01-24T04:26:02.129Z,102009.52
2023-01-24T04:28:32.352Z,102010.32
2023-01-24T04:31:03.695Z,102014.43
2023-01-24T04:33:51.059Z,102014.80
2023-01-24T04:36:19.834Z,102014.15
2023-01-24T04:38:49.727Z,102021.04
2023-01-24T04:41:24.429Z,102023.77
2023-01-24T04:43:56.220Z,102025.96
2023-01-24T04:46:25.514Z,102027.69
2023-01-24T04:48:56.927Z,102026.26
2023-01-24T04:51:44.677Z,102028.10
2023-01-24T04:54:20.508Z,102032.26
2023-01-24T04:56:51.386Z,102035.02
2023-01-24T04:59:20.002Z,102035.88
2023-01-24T05:01:49.026Z,102040.69
2023-01-24T05:04:56.358Z,102044.68
2023-01-24T05:07:26.094Z,102045.21
2023-01-24T05:10:01.415Z,102049.31
2023-01-24T05:12:30.494Z,102050.10
2023-01-24T05:15:01.949Z,102049.81
2023-01-24T05:17:31.759Z,102051.09
2023-01-24T05:20:00.617Z,102058.12
2023-01-24T05:22:30.616Z,102060.19
2023-01-24T05:24:59.603Z,102062.32
2023-01-24T05:27:28.354Z,102063.98
2023-01-24T05:30:00.939Z,102066.30
2023-01-24T05:32:30.509Z,102077.48
2023-01-24T05:34:59.318Z,102080.36
2023-01-24T05:37:28.327Z,102086.80
2023-01-24T05:39:58.411Z,102092.90
2023-01-24T05:42:26.938Z,102095.88
2023-01-24T05:44:58.052Z,102100.54
2023-01-24T05:47:27.057Z,102106.05
2023-01-24T05:49:56.158Z,102105.45
2023-01-24T05:52:25.694Z,102106.64
2023-01-24T05:54:54.775Z,102108.38
2023-01-24T05:57:38.445Z,102114.09
2023-01-24T06:00:30.662Z,102117.21
2023-01-24T06:03:39.921Z,102118.73
2023-01-24T06:06:10.958Z,102113.84
2023-01-24T06:08:40.334Z,102119.08
2023-01-24T06:11:14.874Z,102118.24
2023-01-24T06:13:43.602Z,102120.80
2023-01-24T06:16:19.708Z,102127.09
2023-01-24T06:18:49.198Z,102126.54
2023-01-24T06:21:34.694Z,102132.30
2023-01-24T06:24:04.857Z,102136.94
2023-01-24T06:26:46.927Z,102137.71
2023-01-24T06:29:17.921Z,102139.23
2023-01-24T06:31:59.248Z,102141.00
2023-01-24T06:34:46.597Z,102143.04
2023-01-24T06:37:21.821Z,102149.92
2023-01-24T06:39:52.876Z,102151.02
2023-01-24T06:42:24.505Z,102150.83
2023-01-24T06:44:55.014Z,102151.20
2023-01-24T06:47:26.400Z,102151.98
2023-01-24T06:49:55.551Z,102149.08
2023-01-24T06:52:24.294Z,102153.88
2023-01-24T06:54:53.022Z,102152.41
2023-01-24T06:57:21.613Z,102155.85
2023-01-24T06:59:51.529Z,102155.61
2023-01-24T07:02:20.518Z,102154.65
2023-01-24T07:04:49.192Z,102161.02
2023-01-24T07:07:20.551Z,102167.02
2023-01-24T07:09:49.735Z,102167.73
2023-01-24T07:12:18.577Z,102162.62
2023-01-24T07:14:47.275Z,102166.07
2023-01-24T07:17:16.287Z,102160.33
2023-01-24T07:19:45.790Z,102161.26
2023-01-24T07:22:15.294Z,102167.02
2023-01-24T07:24:46.251Z,102168.20
2023-01-24T07:27:15.354Z,102173.54
2023-01-24T07:29:44.561Z,102173.14
2023-01-24T11:22:34.696Z,102070.25
2023-01-24T11:25:05.231Z,102049.09
2023-01-24T11:27:45.573Z,102038.05
2023-01-24T11:30:14.428Z,102034.00
2023-01-24T11:33:02.013Z,102035.05
2023-01-24T11:35:36.277Z,102030.73
2023-01-24T11:38:38.291Z,102026.98
2023-01-24T11:41:14.095Z,102019.78
2023-01-24T11:43:50.425Z,102022.06
2023-01-24T11:46:49.681Z,102016.46
2023-01-24T11:49:28.728Z,102017.35
2023-01-24T11:52:06.462Z,102010.29
2023-01-24T11:54:44.099Z,102007.00
2023-01-24T11:57:37.882Z,102006.55
2023-01-24T12:00:12.687Z,102006.48
2023-01-24T12:03:06.522Z,102006.98
2023-01-24T12:05:46.041Z,102010.81
2023-01-24T12:08:38.651Z,102015.15
2023-01-24T12:11:34.609Z,102013.45
2023-01-24T12:14:41.528Z,102009.35
2023-01-24T12:17:38.443Z,102006.04
2023-01-24T12:20:30.505Z,102011.36
2023-01-24T12:23:34.158Z,102010.02
2023-01-24T12:26:04.455Z,102012.54
2023-01-24T12:28:37.074Z,102010.76
2023-01-24T12:31:05.746Z,102009.08
2023-01-24T12:33:57.855Z,102005.55
2023-01-24T12:36:31.074Z,102004.01
2023-01-24T12:39:01.006Z,102000.31
2023-01-24T12:41:37.001Z,102001.11
2023-01-24T12:44:27.165Z,102001.48
2023-01-24T12:47:14.151Z,102002.64
2023-01-24T12:50:05.708Z,102009.52
2023-01-24T12:52:56.728Z,102006.69
2023-01-24T12:55:51.033Z,102009.17
2023-01-24T12:58:25.206Z,102014.23
2023-01-24T13:01:08.018Z,102012.13
2023-01-24T13:04:05.510Z,102015.73
2023-01-24T13:06:34.371Z,102016.86
2023-01-24T13:09:08.709Z,102016.81
2023-01-24T13:11:42.420Z,102017.34
2023-01-24T13:14:21.803Z,102017.52
2023-01-24T13:17:17.511Z,102015.94
2023-01-24T13:19:52.774Z,102008.97
2023-01-24T13:22:40.176Z,102008.27
2023-01-24T13:25:24.289Z,102013.59
2023-01-24T13:27:58.457Z,102014.84
2023-01-24T13:30:32.403Z,102016.17
2023-01-24T13:33:04.562Z,102014.93
2023-01-24T13:35:35.477Z,102013.71
2023-01-24T13:38:25.945Z,102017.23
2023-01-24T13:41:04.241Z,102014.73
2023-01-24T13:43:49.354Z,102008.11
2023-01-24T13:46:17.944Z,102007.52
2023-01-24T13:48:48.207Z,102006.81
2023-01-24T13:51:33.439Z,101998.55
2023-01-24T13:54:26.537Z,101998.46
2023-01-24T13:57:20.420Z,101995.55
2023-01-24T14:00:05.014Z,101995.48
2023-01-24T14:02:54.652Z,101993.48
2023-01-24T14:05:29.460Z,101993.14
2023-01-24T14:08:05.787Z,101991.48
2023-01-24T14:10:35.638Z,101987.23
2023-01-24T14:13:04.671Z,101982.98
2023-01-24T14:15:43.964Z,101979.09
2023-01-24T14:18:52.020Z,101977.58
2023-01-24T14:21:31.970Z,101970.29
2023-01-24T14:24:05.710Z,101965.04
2023-01-24T14:26:36.489Z,101957.74
2023-01-24T14:29:14.477Z,101955.47
2023-01-24T14:31:45.387Z,101951.42
2023-01-24T14:34:49.536Z,101947.58
2023-01-24T14:37:18.915Z,101940.48
2023-01-24T14:39:48.573Z,101938.15
2023-01-24T14:42:17.297Z,101934.02
2023-01-24T14:44:57.019Z,101930.73
2023-01-24T14:47:27.072Z,101931.61
2023-01-24T14:49:57.672Z,101924.77
2023-01-24T14:52:28.092Z,101918.76
2023-01-24T14:54:58.620Z,101918.98
2023-01-24T14:57:30.314Z,101914.93
2023-01-24T15:00:18.678Z,101908.98
2023-01-24T15:02:57.222Z,101902.67
2023-01-24T15:05:39.046Z,101900.52
2023-01-24T15:08:14.489Z,101898.52
2023-01-24T15:10:43.314Z,101895.85
2023-01-24T15:13:28.245Z,101894.27
2023-01-24T15:15:57.255Z,101887.70
2023-01-24T15:18:45.813Z,101883.34
2023-01-24T15:21:39.028Z,101878.20
2023-01-24T15:24:20.496Z,101873.63
2023-01-24T15:26:50.040Z,101868.10
2023-01-24T15:29:37.453Z,101866.43
2023-01-24T15:32:30.010Z,101858.11
2023-01-24T15:35:33.867Z,101848.45
2023-01-24T15:38:11.738Z,101839.62
2023-01-24T15:41:15.973Z,101834.65
2023-01-24T15:44:05.883Z,101827.61
2023-01-24T15:46:57.961Z,101817.14
2023-01-24T15:49:40.225Z,101806.04
2023-01-24T15:52:08.984Z,101796.66
2023-01-24T15:54:38.485Z,101786.84
2023-01-24T15:57:17.711Z,101777.27
2023-01-24T15:59:48.965Z,101764.27
2023-01-24T16:02:17.955Z,101757.58
2023-01-24T16:04:49.073Z,101751.59
2023-01-24T16:07:21.437Z,101740.54
2023-01-24T16:09:50.205Z,101726.61
2023-01-24T16:12:20.540Z,101720.15
2023-01-24T16:15:06.457Z,101705.03
2023-01-24T20:13:02.921Z,101108.12
2023-01-24T20:15:33.515Z,101100.77
2023-01-24T20:18:04.126Z,101084.85
2023-01-24T20:20:35.243Z,101071.04
2023-01-24T20:23:04.405Z,101052.77
2023-01-24T20:25:35.113Z,101029.14
2023-01-24T20:28:04.781Z,101003.64
2023-01-24T20:30:34.548Z,100977.05
2023-01-24T20:33:04.145Z,100948.94
2023-01-24T20:35:34.587Z,100920.77
2023-01-24T20:38:03.861Z,100874.16
2023-01-24T20:40:33.407Z,100843.57
2023-01-24T20:43:02.965Z,100785.29
2023-01-24T20:45:33.670Z,100735.02
2023-01-24T20:48:02.602Z,100700.42
2023-01-24T20:50:31.538Z,100678.96
2023-01-24T20:53:00.895Z,100639.67
2023-01-24T20:55:30.484Z,100602.67
2023-01-24T20:57:59.626Z,100574.69
2023-01-24T21:00:29.474Z,100545.94
2023-01-24T21:02:59.207Z,100516.22
2023-01-24T21:05:32.084Z,100473.41
2023-01-24T21:08:01.325Z,100428.02
2023-01-24T21:10:33.285Z,100383.79
2023-01-24T21:13:02.567Z,100335.49
2023-01-24T21:15:32.130Z,100278.39
2023-01-24T21:18:01.318Z,100210.95
2023-01-24T21:20:30.274Z,100143.55
2023-01-24T21:22:58.644Z,100082.55
2023-01-24T21:25:26.823Z,100036.91
2023-01-24T21:27:55.091Z,99996.13
2023-01-24T21:30:28.414Z,99952.00
2023-01-24T21:32:57.401Z,99919.27
2023-01-24T21:35:27.361Z,99881.94
2023-01-24T21:37:59.473Z,99843.09
2023-01-24T21:40:28.149Z,99803.33
2023-01-24T21:42:57.033Z,99750.16
2023-01-24T21:45:25.630Z,99704.35
2023-01-24T21:47:54.318Z,99666.29
2023-01-24T21:50:23.195Z,99643.02
2023-01-24T21:52:54.858Z,99627.02
2023-01-24T21:55:23.506Z,99613.22
2023-01-24T21:58:05.911Z,99590.86
2023-01-24T22:00:34.646Z,99575.75
2023-01-24T22:03:21.227Z,99576.98
2023-01-24T22:05:49.459Z,99565.60
2023-01-24T22:08:20.760Z,99562.98
2023-01-24T22:10:49.501Z,99557.00
2023-01-24T22:13:18.300Z,99557.55
2023-01-24T22:15:47.325Z,99563.38
2023-01-24T22:18:16.485Z,99577.63
2023-01-24T22:20:45.548Z,99597.08
2023-01-24T22:23:18.824Z,99610.69
2023-01-24T22:26:04.970Z,99620.73
2023-01-24T22:28:34.085Z,99641.95
2023-01-24T22:31:03.915Z,99654.36
2023-01-24T22:33:35.026Z,99670.70
2023-01-24T22:36:04.029Z,99688.23
2023-01-24T22:38:32.848Z,99706.44
2023-01-24T22:41:01.611Z,99721.23
2023-01-24T22:43:30.677Z,99743.36
2023-01-24T22:45:59.601Z,99762.48
2023-01-24T22:48:29.379Z,99779.23
2023-01-24T22:50:58.316Z,99798.13
2023-01-24T22:53:27.127Z,99815.38
2023-01-24T22:55:59.032Z,99828.21
2023-01-24T22:58:28.039Z,99844.13
2023-01-24T23:01:04.495Z,99859.14
2023-01-24T23:03:34.617Z,99885.54
2023-01-24T23:06:09.457Z,99895.63
2023-01-24T23:08:38.479Z,99915.98
2023-01-24T23:11:15.284Z,99927.74
2023-01-24T23:14:03.062Z,99943.23
2023-01-24T23:16:53.253Z,99960.98
2023-01-24T23:19:56.500Z,99971.61
2023-01-24T23:22:27.458Z,99993.27
2023-01-24T23:24:56.510Z,100005.64
2023-01-24T23:27:27.437Z,100017.64
2023-01-24T23:30:19.713Z,100034.91
2023-01-24T23:32:50.858Z,100047.04
2023-01-24T23:35:19.706Z,100057.31
2023-01-24T23:37:48.638Z,100065.63
2023-01-24T23:40:17.974Z,100075.88
2023-01-24T23:42:46.900Z,100083.55
2023-01-24T23:45:17.889Z,100095.70
2023-01-24T23:47:46.631Z,100110.97
2023-01-24T23:50:15.449Z,100116.88
2023-01-24T23:52:44.513Z,100134.21
2023-01-24T23:55:13.515Z,100146.02
2023-01-24T23:57:43.117Z,100156.80
